Time;durP1;ratioP1;P1;durP2;ratioP2;P2;SDS_P1;SDS_P2;PMS_P1;PMS_P2;Temp;Humidity;BMP_temperature;BMP_pressure;BME280_temperature;BME280_humidity;BME280_pressure;Samples;Min_cycle;Max_cycle;Signal;HPM_P1;HPM_P2
2022/06/13 00:01:37;;;;;;;18.58;7.45;;;14.30;99.90;;;;;;5023840;28;20527;-46
2022/06/13 00:04:07;;;;;;;19.20;6.50;;;14.30;99.90;;;;;;5042285;28;20107;-43
2022/06/13 00:06:33;;;;;;;16.73;7.63;;;14.20;99.90;;;;;;5041425;28;20173;-43
2022/06/13 00:08:59;;;;;;;18.75;7.72;;;14.20;99.90;;;;;;5040258;28;20045;-46
2022/06/13 00:11:26;;;;;;;20.85;7.50;;;14.20;99.90;;;;;;5022200;28;20385;-49
2022/06/13 00:13:55;;;;;;;15.75;7.75;;;14.20;99.90;;;;;;5040735;28;20060;-47
2022/06/13 00:16:21;;;;;;;17.65;8.27;;;14.20;99.90;;;;;;5021564;28;20526;-45
2022/06/13 00:18:48;;;;;;;16.92;7.95;;;14.20;99.90;;;;;;5040444;28;20063;-44
2022/06/13 00:21:23;;;;;;;22.08;8.35;;;14.20;99.90;;;;;;5040553;28;20116;-44
2022/06/13 00:23:50;;;;;;;21.05;9.13;;;14.20;99.90;;;;;;5040940;28;20103;-43
2022/06/13 00:26:17;;;;;;;16.98;8.95;;;14.20;99.90;;;;;;5040212;28;20486;-45
2022/06/13 00:28:43;;;;;;;16.83;8.30;;;14.20;99.90;;;;;;5040574;28;20586;-45
2022/06/13 00:31:09;;;;;;;19.27;8.65;;;14.20;99.90;;;;;;5023088;28;20049;-44
2022/06/13 00:33:34;;;;;;;19.50;9.27;;;14.20;99.90;;;;;;5041274;28;20550;-44
2022/06/13 00:36:00;;;;;;;19.40;9.77;;;14.20;99.90;;;;;;5023443;28;20060;-44
2022/06/13 00:38:26;;;;;;;16.98;9.48;;;14.20;99.90;;;;;;5040844;28;20056;-44
2022/06/13 00:40:52;;;;;;;25.73;9.65;;;14.20;99.90;;;;;;5032073;28;20246;-44
2022/06/13 00:43:17;;;;;;;19.70;9.20;;;14.30;99.90;;;;;;5022533;28;20056;-47
2022/06/13 00:45:45;;;;;;;16.63;8.40;;;14.30;99.90;;;;;;5041132;28;20407;-44
2022/06/13 00:48:13;;;;;;;25.77;10.32;;;14.30;99.90;;;;;;5040549;28;20049;-46
2022/06/13 00:50:53;;;;;;;17.80;8.20;;;14.30;99.90;;;;;;5033083;28;20051;-44
2022/06/13 00:53:31;;;;;;;22.45;9.02;;;14.30;99.90;;;;;;5040235;28;20057;-46
2022/06/13 00:56:06;;;;;;;21.58;8.90;;;14.30;99.90;;;;;;5040341;28;20051;-45
2022/06/13 00:58:38;;;;;;;20.20;8.57;;;14.30;99.90;;;;;;5039784;28;20056;-44
2022/06/13 01:01:04;;;;;;;21.50;8.13;;;14.30;99.90;;;;;;5038198;28;20049;-44
2022/06/13 01:03:32;;;;;;;21.50;9.07;;;14.30;99.90;;;;;;5040956;28;20076;-44
2022/06/13 01:06:01;;;;;;;24.60;9.88;;;14.30;99.90;;;;;;5023532;28;20045;-44
2022/06/13 01:08:30;;;;;;;19.70;8.75;;;14.30;99.90;;;;;;5026264;28;20147;-47
2022/06/13 01:11:17;;;;;;;22.10;9.13;;;14.30;99.90;;;;;;5040827;28;20131;-48
2022/06/13 01:14:02;;;;;;;18.80;8.35;;;14.30;99.90;;;;;;5021521;28;20052;-46
2022/06/13 01:16:58;;;;;;;20.58;8.63;;;14.30;99.90;;;;;;5040337;28;20190;-47
2022/06/13 01:20:02;;;;;;;18.50;8.43;;;14.30;99.90;;;;;;5038615;28;20601;-45
2022/06/13 01:22:37;;;;;;;20.73;8.65;;;14.30;99.90;;;;;;4958407;28;20569;-45
2022/06/13 01:25:22;;;;;;;21.13;9.15;;;14.30;99.90;;;;;;4958120;28;20051;-45
2022/06/13 01:28:21;;;;;;;21.85;9.70;;;14.30;99.90;;;;;;4958022;28;20056;-44
2022/06/13 01:31:22;;;;;;;21.05;9.63;;;14.30;99.90;;;;;;4957011;28;20148;-43
2022/06/13 01:34:13;;;;;;;24.42;9.73;;;14.30;99.90;;;;;;4957293;28;20063;-43
2022/06/13 01:37:18;;;;;;;20.80;8.93;;;14.30;99.90;;;;;;4942935;28;20061;-45
2022/06/13 01:40:02;;;;;;;23.25;10.05;;;14.30;99.90;;;;;;4941795;28;20058;-43
2022/06/13 01:42:31;;;;;;;20.10;8.85;;;14.30;99.90;;;;;;4942550;28;20054;-46
2022/06/13 01:45:15;;;;;;;17.52;9.55;;;14.30;99.90;;;;;;4957552;28;20509;-44
2022/06/13 01:47:59;;;;;;;21.58;9.20;;;14.20;99.90;;;;;;4952961;28;20043;-44
2022/06/13 01:50:58;;;;;;;20.65;8.30;;;14.20;99.90;;;;;;4957044;28;20291;-44
2022/06/13 01:53:37;;;;;;;25.05;10.30;;;14.20;99.90;;;;;;4881529;29;20139;-44
2022/06/13 01:56:12;;;;;;;19.42;8.32;;;14.20;99.90;;;;;;4866178;29;20099;-44
2022/06/13 01:58:56;;;;;;;23.15;9.30;;;14.20;99.90;;;;;;4890577;29;20062;-44
2022/06/13 02:02:05;;;;;;;19.38;8.75;;;14.10;99.90;;;;;;4903766;29;20087;-45
2022/06/13 02:05:00;;;;;;;20.33;9.05;;;14.10;99.90;;;;;;4877364;29;20062;-44
2022/06/13 02:07:39;;;;;;;20.17;9.10;;;14.10;99.90;;;;;;4880511;29;20067;-46
2022/06/13 02:10:28;;;;;;;22.27;8.90;;;14.10;99.90;;;;;;4851480;29;20303;-44
2022/06/13 02:13:06;;;;;;;19.17;9.70;;;14.10;99.90;;;;;;4878207;29;20052;-45
2022/06/13 02:15:44;;;;;;;18.33;8.68;;;14.10;99.90;;;;;;4882879;29;20055;-46
2022/06/13 02:18:19;;;;;;;20.17;8.48;;;14.10;99.90;;;;;;4867112;29;20053;-46
2022/06/13 02:20:49;;;;;;;20.80;9.23;;;14.20;99.90;;;;;;4882315;29;20447;-45
2022/06/13 02:23:21;;;;;;;23.88;8.80;;;14.20;99.90;;;;;;4881112;29;20091;-45
2022/06/13 02:26:08;;;;;;;19.30;8.02;;;14.20;99.90;;;;;;4882394;29;20140;-44
2022/06/13 02:28:38;;;;;;;23.98;8.75;;;14.20;99.90;;;;;;4882354;29;20065;-46
2022/06/13 02:31:14;;;;;;;17.73;7.90;;;14.20;99.90;;;;;;4922393;29;20138;-45
2022/06/13 02:33:49;;;;;;;18.15;7.38;;;14.20;99.90;;;;;;4937781;29;20051;-45
2022/06/13 02:36:45;;;;;;;17.48;7.15;;;14.20;99.90;;;;;;4920233;29;20055;-45
2022/06/13 02:39:28;;;;;;;16.83;7.63;;;14.20;99.90;;;;;;4916696;29;20086;-44
2022/06/13 02:42:03;;;;;;;19.25;7.18;;;14.20;99.90;;;;;;4987489;28;20054;-43
2022/06/13 02:44:42;;;;;;;15.13;6.65;;;14.20;99.90;;;;;;5000162;28;20061;-47
2022/06/13 02:47:24;;;;;;;14.75;7.22;;;14.20;99.90;;;;;;4999278;28;20077;-44
2022/06/13 02:50:25;;;;;;;19.65;6.97;;;14.20;99.90;;;;;;5000245;28;20054;-44
2022/06/13 02:53:01;;;;;;;16.45;7.03;;;14.20;99.90;;;;;;4976380;28;20484;-44
2022/06/13 02:55:29;;;;;;;16.48;6.68;;;14.20;99.90;;;;;;4977368;28;20113;-44
2022/06/13 02:58:23;;;;;;;16.67;6.78;;;14.20;99.90;;;;;;4975767;28;20058;-46
2022/06/13 03:01:09;;;;;;;9.70;4.97;;;14.20;99.90;;;;;;4976664;28;20073;-44
2022/06/13 03:04:21;;;;;;;13.80;4.90;;;14.20;99.90;;;;;;4979690;28;20548;-45
2022/06/13 03:07:28;;;;;;;11.25;4.65;;;14.20;99.90;;;;;;4962554;28;20173;-43
2022/06/13 03:10:06;;;;;;;15.70;4.47;;;14.20;99.90;;;;;;4921626;29;20121;-44
2022/06/13 03:12:35;;;;;;;12.40;4.55;;;14.20;99.90;;;;;;4950928;28;20940;-44
2022/06/13 03:15:05;;;;;;;11.93;3.65;;;14.20;99.90;;;;;;4961149;28;20134;-47
2022/06/13 03:17:44;;;;;;;10.88;3.58;;;14.10;99.90;;;;;;4960627;28;20068;-44
2022/06/13 03:20:16;;;;;;;11.38;4.05;;;14.10;99.90;;;;;;4933162;29;20530;-46
2022/06/13 03:22:50;;;;;;;9.38;4.35;;;14.10;99.90;;;;;;4942540;29;20502;-43
2022/06/13 03:25:50;;;;;;;12.10;3.70;;;14.10;99.90;;;;;;4944398;28;20093;-44
2022/06/13 03:28:34;;;;;;;8.75;3.83;;;14.10;99.90;;;;;;4943641;28;20062;-44
2022/06/13 03:31:07;;;;;;;11.43;3.80;;;14.00;99.90;;;;;;4920140;29;20051;-43
2022/06/13 03:33:41;;;;;;;;;;;14.00;99.90;;;;;;4923896;29;20538;-44
2022/06/13 03:36:36;;;;;;;10.82;4.07;;;14.00;99.90;;;;;;4925353;29;19962;-45
2022/06/13 03:39:12;;;;;;;10.70;3.50;;;14.00;99.90;;;;;;4919789;29;20062;-46
2022/06/13 03:41:46;;;;;;;19.05;3.50;;;14.00;99.90;;;;;;4921147;29;20063;-44
2022/06/13 03:44:30;;;;;;;6.35;2.78;;;13.90;99.90;;;;;;4915209;29;20565;-45
2022/06/13 03:47:06;;;;;;;8.80;2.90;;;13.90;99.90;;;;;;4996398;28;20635;-44
2022/06/13 03:50:01;;;;;;;10.43;3.08;;;14.00;99.90;;;;;;5000594;28;20558;-43
2022/06/13 03:52:32;;;;;;;7.65;3.47;;;14.00;99.90;;;;;;5002968;28;20508;-44
2022/06/13 03:55:05;;;;;;;7.50;2.97;;;14.10;99.90;;;;;;5002846;28;20497;-43
2022/06/13 03:57:34;;;;;;;;;;;14.10;99.90;;;;;;5000974;28;20049;-43
2022/06/13 04:00:14;;;;;;;11.35;3.85;;;14.20;99.90;;;;;;4999906;28;19925;-44
2022/06/13 04:02:42;;;;;;;8.25;3.65;;;14.20;99.90;;;;;;5001576;28;20053;-43
2022/06/13 04:05:36;;;;;;;11.38;3.65;;;14.20;99.90;;;;;;5002147;28;20045;-44
2022/06/13 04:08:03;;;;;;;7.25;3.38;;;14.30;99.90;;;;;;5002161;28;20575;-45
2022/06/13 04:10:37;;;;;;;9.20;3.78;;;14.30;99.90;;;;;;5001634;28;20587;-44
2022/06/13 04:13:49;;;;;;;10.02;3.90;;;14.30;99.90;;;;;;5001945;28;21163;-44
2022/06/13 04:16:28;;;;;;;11.68;3.92;;;14.50;99.90;;;;;;5021074;28;20052;-44
2022/06/13 04:19:37;;;;;;;9.50;3.90;;;14.70;99.90;;;;;;5040840;28;20055;-44
2022/06/13 04:22:21;;;;;;;7.55;3.92;;;14.90;99.90;;;;;;5031393;28;20049;-44
2022/06/13 04:24:55;;;;;;;9.88;4.00;;;15.20;99.90;;;;;;5041401;28;20677;-46
2022/06/13 04:27:37;;;;;;;10.68;4.40;;;15.70;99.90;;;;;;5022795;28;20404;-45
2022/06/13 04:30:17;;;;;;;9.82;3.88;;;16.10;99.90;;;;;;5041083;28;20060;-45
2022/06/13 04:32:52;;;;;;;9.73;4.90;;;16.30;99.90;;;;;;5021523;28;20084;-45
2022/06/13 04:35:19;;;;;;;8.00;4.07;;;16.50;99.90;;;;;;5040918;28;20380;-45
2022/06/13 04:37:46;;;;;;;13.35;5.25;;;17.40;99.90;;;;;;5040823;28;20106;-46
2022/06/13 04:40:21;;;;;;;7.38;4.13;;;18.60;99.90;;;;;;5041517;28;20060;-44
2022/06/13 04:42:49;;;;;;;8.52;3.83;;;19.70;99.90;;;;;;5041303;28;20053;-45
2022/06/13 04:45:25;;;;;;;9.15;4.43;;;20.50;99.90;;;;;;5039021;28;20056;-46
2022/06/13 04:47:53;;;;;;;11.25;5.22;;;20.80;99.90;;;;;;5041362;28;20080;-45
2022/06/13 04:50:34;;;;;;;10.15;3.92;;;20.40;99.90;;;;;;5044525;28;20057;-46
2022/06/13 04:53:02;;;;;;;10.50;4.88;;;19.50;99.90;;;;;;5042153;28;20045;-48
2022/06/13 04:55:45;;;;;;;11.00;4.75;;;18.70;99.90;;;;;;5041310;28;20131;-48
2022/06/13 04:58:32;;;;;;;9.40;4.32;;;17.80;99.90;;;;;;5020240;28;20599;-45
2022/06/13 05:01:29;;;;;;;11.52;4.88;;;17.20;99.90;;;;;;5040026;28;20576;-44
2022/06/13 05:03:58;;;;;;;11.32;3.90;;;17.00;99.90;;;;;;4958187;28;20070;-44
2022/06/13 05:06:30;;;;;;;9.65;4.80;;;17.10;99.90;;;;;;4958473;28;20051;-44
2022/06/13 05:09:02;;;;;;;8.35;3.72;;;17.50;99.90;;;;;;4942172;28;20066;-45
2022/06/13 05:11:37;;;;;;;8.93;4.72;;;17.50;99.90;;;;;;4942626;28;20474;-44
2022/06/13 05:14:11;;;;;;;8.93;3.75;;;17.30;99.90;;;;;;4958905;28;20149;-45
2022/06/13 05:16:42;;;;;;;9.00;3.38;;;17.10;99.90;;;;;;4958338;28;20133;-44
2022/06/13 05:19:49;;;;;;;13.20;3.63;;;16.90;99.90;;;;;;4958383;28;20078;-45
2022/06/13 05:22:24;;;;;;;10.65;3.47;;;16.80;99.90;;;;;;4952077;28;20601;-44
2022/06/13 05:25:20;;;;;;;9.57;3.38;;;16.80;99.90;;;;;;4951344;28;20062;-46
2022/06/13 05:27:46;;;;;;;10.55;3.75;;;16.70;99.90;;;;;;4957721;28;20070;-44
2022/06/13 05:30:16;;;;;;;10.90;3.30;;;16.60;99.90;;;;;;4941803;28;20231;-44
2022/06/13 05:32:42;;;;;;;11.90;3.58;;;16.70;99.90;;;;;;4942003;28;20054;-43
2022/06/13 05:35:22;;;;;;;11.30;2.67;;;16.60;99.90;;;;;;4958493;28;20054;-45
2022/06/13 05:37:50;;;;;;;8.13;2.60;;;16.30;99.90;;;;;;4958088;28;20515;-44
2022/06/13 05:40:18;;;;;;;8.63;2.67;;;16.30;99.90;;;;;;4972238;28;20061;-46
2022/06/13 05:42:44;;;;;;;7.00;2.25;;;16.10;99.90;;;;;;5040021;28;20049;-45
2022/06/13 05:45:16;;;;;;;7.15;2.55;;;15.90;99.90;;;;;;5039873;28;20119;-47
2022/06/13 05:47:44;;;;;;;10.23;2.28;;;15.60;99.90;;;;;;5039719;28;20417;-44
2022/06/13 05:50:14;;;;;;;8.27;2.45;;;15.50;99.90;;;;;;5039374;28;20129;-45
2022/06/13 05:52:41;;;;;;;13.25;2.97;;;15.30;99.90;;;;;;5040550;28;20040;-44
2022/06/13 05:55:07;;;;;;;7.80;2.40;;;15.20;99.90;;;;;;5039493;28;20070;-45
2022/06/13 05:57:33;;;;;;;8.60;2.55;;;15.00;99.90;;;;;;5039467;28;20049;-46
2022/06/13 05:59:58;;;;;;;7.45;2.20;;;14.80;99.90;;;;;;5040051;28;20103;-44
2022/06/13 06:02:24;;;;;;;6.72;2.67;;;14.70;99.90;;;;;;5039867;28;20087;-46
2022/06/13 06:04:51;;;;;;;9.70;2.50;;;14.60;99.90;;;;;;5043193;28;20451;-45
2022/06/13 06:07:17;;;;;;;7.38;2.38;;;14.60;99.90;;;;;;5041568;28;20049;-45
2022/06/13 06:09:43;;;;;;;10.00;2.70;;;14.50;99.90;;;;;;5038826;28;20389;-45
2022/06/13 06:12:09;;;;;;;9.27;2.35;;;14.40;99.90;;;;;;5019984;28;20152;-46
2022/06/13 06:14:35;;;;;;;9.32;2.85;;;14.30;99.90;;;;;;5039714;28;20080;-44
2022/06/13 06:17:01;;;;;;;7.68;2.42;;;14.20;99.90;;;;;;5039451;28;20045;-43
2022/06/13 06:19:26;;;;;;;6.55;2.28;;;14.20;99.90;;;;;;5039220;28;20051;-43
2022/06/13 06:21:52;;;;;;;6.35;2.30;;;14.20;99.90;;;;;;5021868;28;20084;-45
2022/06/13 06:24:18;;;;;;;6.22;1.58;;;14.30;99.90;;;;;;5039223;28;20051;-44
2022/06/13 06:26:44;;;;;;;3.85;1.83;;;14.40;99.90;;;;;;5038561;28;20483;-44
2022/06/13 06:29:12;;;;;;;6.32;2.08;;;14.50;99.90;;;;;;5038949;28;20052;-44
2022/06/13 06:31:38;;;;;;;4.53;1.73;;;14.70;99.90;;;;;;5018127;28;20495;-44
2022/06/13 06:34:04;;;;;;;5.53;1.83;;;14.90;99.90;;;;;;5020146;28;20061;-44
2022/06/13 06:36:30;;;;;;;5.05;1.73;;;15.10;99.90;;;;;;5034048;28;20037;-44
2022/06/13 06:38:56;;;;;;;7.10;2.17;;;15.20;99.90;;;;;;5039851;28;20049;-44
2022/06/13 06:41:22;;;;;;;7.43;1.85;;;15.50;99.90;;;;;;5023682;28;20045;-44
2022/06/13 06:43:48;;;;;;;6.80;2.22;;;16.00;99.90;;;;;;5041486;28;20514;-44
2022/06/13 06:46:14;;;;;;;5.72;1.90;;;17.30;99.90;;;;;;5042006;28;20568;-45
2022/06/13 06:48:40;;;;;;;4.93;1.70;;;18.40;99.90;;;;;;5042633;28;21410;-45
2022/06/13 06:51:12;;;;;;;9.05;2.13;;;19.40;99.90;;;;;;5040162;28;20171;-46
2022/06/13 07:01:56;;;;;;;5.90;1.70;;;22.10;99.90;;;;;;5041304;28;20064;-48
2022/06/13 07:04:22;;;;;;;7.28;1.90;;;21.00;99.90;;;;;;5042915;28;20423;-45
2022/06/13 07:06:48;;;;;;;5.88;2.25;;;19.80;99.90;;;;;;5042537;28;20075;-46
2022/06/13 07:09:13;;;;;;;6.80;2.30;;;19.00;99.90;;;;;;5042651;28;20037;-45
2022/06/13 07:11:55;;;;;;;6.65;1.63;;;19.20;99.90;;;;;;5023889;28;20417;-44
2022/06/13 07:14:22;;;;;;;6.88;2.22;;;20.30;99.90;;;;;;5023025;28;20910;-45
2022/06/13 07:16:49;;;;;;;5.70;1.90;;;21.40;99.90;;;;;;5038732;28;20061;-45
2022/06/13 07:19:14;;;;;;;6.80;2.22;;;21.90;99.90;;;;;;5043462;28;20041;-45
2022/06/13 07:21:43;;;;;;;5.35;2.00;;;22.20;99.90;;;;;;5046576;28;20056;-45
2022/06/13 07:24:10;;;;;;;4.78;2.08;;;22.20;99.90;;;;;;5039968;28;20048;-49
2022/06/13 07:26:36;;;;;;;7.05;2.00;;;21.50;99.90;;;;;;5042313;28;20753;-47
2022/06/13 07:29:03;;;;;;;11.60;2.30;;;20.60;99.90;;;;;;5023966;28;20065;-46
2022/06/13 07:31:57;;;;;;;9.65;1.92;;;20.30;99.90;;;;;;5042849;28;20036;-45
2022/06/13 07:34:29;;;;;;;6.20;2.13;;;20.60;99.90;;;;;;5041804;28;20048;-46
2022/06/13 07:36:57;;;;;;;6.72;1.92;;;20.90;99.90;;;;;;5042162;28;20040;-47
2022/06/13 07:39:23;;;;;;;6.80;1.92;;;20.70;99.90;;;;;;5035313;28;20076;-44
2022/06/13 07:41:50;;;;;;;3.67;1.88;;;20.80;99.90;;;;;;5038840;28;20148;-45
2022/06/13 07:44:27;;;;;;;8.15;2.17;;;21.10;99.90;;;;;;5042306;28;20503;-47
2022/06/13 07:46:53;;;;;;;7.32;2.13;;;21.30;99.90;;;;;;5041599;28;20526;-46
2022/06/13 07:49:20;;;;;;;7.82;2.17;;;21.60;99.90;;;;;;5019817;28;20061;-45
2022/06/13 07:51:47;;;;;;;6.18;2.00;;;21.70;99.90;;;;;;5041961;28;20139;-46
2022/06/13 07:54:13;;;;;;;7.03;1.77;;;21.70;99.90;;;;;;5022870;28;20381;-45
2022/06/13 07:56:39;;;;;;;8.57;2.22;;;21.50;99.90;;;;;;5041580;28;20542;-44
2022/06/13 07:59:17;;;;;;;6.50;2.00;;;20.90;99.90;;;;;;5021176;28;20105;-45
2022/06/13 08:01:43;;;;;;;7.00;1.88;;;20.20;99.90;;;;;;5041639;28;20124;-45
2022/06/13 08:04:10;;;;;;;8.32;2.00;;;20.30;99.90;;;;;;5042009;28;20103;-45
2022/06/13 08:06:38;;;;;;;7.72;2.25;;;20.30;99.90;;;;;;5040517;28;20076;-44
2022/06/13 08:09:04;;;;;;;5.57;1.90;;;20.40;99.90;;;;;;5023081;28;20337;-46
2022/06/13 08:11:37;;;;;;;8.63;2.10;;;20.50;99.90;;;;;;5040780;28;20127;-44
2022/06/13 08:14:06;;;;;;;;;;;20.20;99.90;;;;;;5042168;28;20500;-45
2022/06/13 08:16:35;;;;;;;7.35;1.65;;;20.10;99.90;;;;;;5023024;28;19924;-44
2022/06/13 08:19:03;;;;;;;6.97;2.03;;;20.30;99.90;;;;;;5040058;28;20040;-45
2022/06/13 08:21:31;;;;;;;6.25;1.58;;;20.60;99.90;;;;;;5033426;28;20056;-45
2022/06/13 08:24:00;;;;;;;10.57;1.83;;;21.00;99.90;;;;;;5030811;28;20490;-46
2022/06/13 08:26:27;;;;;;;6.97;2.00;;;21.10;99.90;;;;;;5010085;28;20053;-47
2022/06/13 08:28:53;;;;;;;7.40;2.40;;;21.20;99.90;;;;;;5030421;28;20128;-45
2022/06/13 08:31:21;;;;;;;6.75;2.03;;;21.30;99.90;;;;;;5029336;28;20053;-44
2022/06/13 08:33:48;;;;;;;8.20;1.90;;;21.40;99.90;;;;;;5029462;28;20049;-46
2022/06/13 08:36:14;;;;;;;7.30;1.67;;;21.30;99.90;;;;;;5027499;28;20053;-45
2022/06/13 08:38:40;;;;;;;7.25;1.85;;;21.00;99.10;;;;;;5011687;28;20054;-45
2022/06/13 08:41:14;;;;;;;5.70;1.65;;;20.80;99.60;;;;;;5035663;28;20342;-47
2022/06/13 08:44:00;;;;;;;6.05;1.90;;;20.90;99.90;;;;;;5030570;28;20045;-45
2022/06/13 08:46:38;;;;;;;8.63;2.40;;;20.90;99.90;;;;;;5017232;28;20132;-45
2022/06/13 08:49:35;;;;;;;5.45;1.70;;;20.30;99.60;;;;;;5034040;28;20107;-46
2022/06/13 08:52:43;;;;;;;5.05;1.70;;;20.30;99.90;;;;;;5027496;28;20049;-45
2022/06/13 08:55:22;;;;;;;4.88;1.42;;;19.70;99.90;;;;;;5012245;28;20056;-45
2022/06/13 08:58:05;;;;;;;7.45;1.80;;;19.70;99.90;;;;;;5029811;28;20053;-45
2022/06/13 09:00:33;;;;;;;7.03;1.65;;;19.90;99.90;;;;;;5011335;28;20139;-46
2022/06/13 09:03:03;;;;;;;5.88;1.75;;;20.30;99.90;;;;;;5025258;28;20053;-45
2022/06/13 09:05:56;;;;;;;6.90;2.00;;;20.50;99.70;;;;;;5010546;28;20057;-45
2022/06/13 09:08:45;;;;;;;;;;;20.30;99.80;;;;;;5028873;28;20052;-46
2022/06/13 09:11:34;;;;;;;5.40;1.80;;;20.30;99.90;;;;;;4936782;29;20321;-46
2022/06/13 09:14:04;;;;;;;6.43;1.70;;;20.50;99.20;;;;;;4936290;29;20055;-45
2022/06/13 09:16:33;;;;;;;4.85;1.75;;;20.30;99.70;;;;;;4937798;29;20103;-45
2022/06/13 09:19:19;;;;;;;8.65;1.88;;;19.80;99.00;;;;;;4920800;29;20210;-46
2022/06/13 09:21:49;;;;;;;4.55;1.48;;;19.40;99.20;;;;;;4936651;29;20047;-44
2022/06/13 09:24:28;;;;;;;6.93;2.00;;;19.00;99.60;;;;;;4938281;29;20407;-45
2022/06/13 09:27:02;;;;;;;10.52;2.33;;;18.80;99.90;;;;;;4936412;29;20143;-44
2022/06/13 09:30:01;;;;;;;7.75;2.10;;;18.90;99.90;;;;;;4936933;29;20066;-46
2022/06/13 09:32:42;;;;;;;8.13;1.95;;;18.80;99.90;;;;;;4936474;29;20062;-45
2022/06/13 09:35:19;;;;;;;9.40;2.10;;;18.70;99.90;;;;;;4919216;29;20067;-48
2022/06/13 09:37:48;;;;;;;9.60;2.53;;;18.80;99.90;;;;;;4936359;29;20047;-45
2022/06/13 09:40:23;;;;;;;9.45;2.30;;;19.10;99.90;;;;;;4920889;29;20058;-47
2022/06/13 09:42:57;;;;;;;7.82;2.20;;;19.10;99.90;;;;;;4934533;29;20067;-48
2022/06/13 09:45:32;;;;;;;9.40;2.60;;;19.30;99.90;;;;;;4935840;29;20059;-46
2022/06/13 09:48:16;;;;;;;10.38;2.42;;;19.70;99.90;;;;;;4976069;28;20084;-46
2022/06/13 09:50:48;;;;;;;8.60;1.80;;;19.70;99.90;;;;;;5022118;28;20352;-45
2022/06/13 09:53:33;;;;;;;;;;;19.90;99.90;;;;;;5041064;28;20092;-47
2022/06/13 09:56:09;;;;;;;8.45;1.90;;;20.20;99.90;;;;;;5021336;28;19924;-45
2022/06/13 09:59:06;;;;;;;8.25;1.83;;;20.30;99.60;;;;;;5040233;28;20041;-48
2022/06/13 10:01:44;;;;;;;6.65;1.88;;;20.50;99.40;;;;;;5026408;28;20061;-46
2022/06/13 10:04:26;;;;;;;5.80;1.67;;;20.30;99.90;;;;;;5044221;28;20190;-45
2022/06/13 10:07:29;;;;;;;9.63;2.75;;;20.00;99.80;;;;;;5040986;28;20075;-46
2022/06/13 10:10:17;;;;;;;8.02;1.73;;;19.80;99.90;;;;;;5038813;28;20380;-45
2022/06/13 10:13:20;;;;;;;10.38;2.20;;;20.20;99.90;;;;;;5038153;28;20045;-45
2022/06/13 10:16:05;;;;;;;;;;;20.30;99.80;;;;;;5039029;28;20048;-46
2022/06/13 10:18:41;;;;;;;11.15;2.17;;;19.80;99.90;;;;;;5018707;28;20365;-45
2022/06/13 10:21:36;;;;;;;7.15;2.30;;;19.50;99.90;;;;;;5039188;28;20516;-46
2022/06/13 10:24:13;;;;;;;11.32;2.63;;;19.20;99.80;;;;;;4938808;29;20141;-44
2022/06/13 10:27:03;;;;;;;13.85;2.25;;;19.10;99.90;;;;;;4938854;29;20561;-46
2022/06/13 10:29:49;;;;;;;10.48;2.60;;;19.00;99.90;;;;;;4937784;29;20074;-44
2022/06/13 10:32:47;;;;;;;14.70;2.47;;;18.70;99.90;;;;;;4935806;29;20136;-45
2022/06/13 10:35:30;;;;;;;10.32;2.85;;;18.60;99.90;;;;;;4921618;29;20747;-45
2022/06/13 10:38:10;;;;;;;7.20;2.92;;;18.90;99.90;;;;;;4935287;29;20463;-44
2022/06/13 10:40:36;;;;;;;10.57;2.38;;;19.10;99.90;;;;;;4932940;29;20150;-47
2022/06/13 10:43:04;;;;;;;12.95;2.92;;;19.10;99.90;;;;;;4937749;29;20502;-46
2022/06/13 10:45:30;;;;;;;11.70;3.58;;;19.40;99.90;;;;;;4936222;29;20071;-45
2022/06/13 10:48:01;;;;;;;9.52;2.25;;;19.70;99.90;;;;;;4937677;29;20062;-45
2022/06/13 10:50:33;;;;;;;12.50;2.88;;;20.10;99.90;;;;;;4937433;29;20051;-44
2022/06/13 10:53:03;;;;;;;10.23;2.80;;;20.00;99.90;;;;;;4937161;29;20298;-47
2022/06/13 10:55:35;;;;;;;9.57;2.72;;;19.60;99.90;;;;;;4938151;29;20236;-46
2022/06/13 10:58:18;;;;;;;9.68;2.10;;;19.60;99.90;;;;;;4938223;29;20069;-45
2022/06/13 11:01:02;;;;;;;9.25;2.42;;;19.90;99.90;;;;;;4955977;28;20645;-45
2022/06/13 11:03:28;;;;;;;7.85;1.80;;;20.30;99.90;;;;;;5020269;28;20515;-45
2022/06/13 11:06:01;;;;;;;8.60;2.28;;;20.50;99.90;;;;;;5039190;28;20679;-46
2022/06/13 11:08:27;;;;;;;5.82;2.17;;;20.60;99.70;;;;;;5021431;28;20045;-45
2022/06/13 11:10:59;;;;;;;8.52;2.15;;;20.80;99.70;;;;;;5040862;28;20055;-45
2022/06/13 11:13:32;;;;;;;7.55;2.38;;;20.70;98.20;;;;;;5038919;28;20091;-45
2022/06/13 11:24:58;;;;;;;8.45;2.20;;;20.00;99.60;;;;;;5042043;28;20075;-44
2022/06/13 11:27:40;;;;;;;8.07;2.38;;;19.60;98.50;;;;;;5039500;28;20056;-46
2022/06/13 11:30:30;;;;;;;7.70;2.10;;;19.50;99.40;;;;;;5044914;28;20053;-46
2022/06/13 11:33:07;;;;;;;9.48;2.83;;;19.60;99.80;;;;;;5043368;28;20060;-49
2022/06/13 11:35:40;;;;;;;9.60;1.83;;;19.90;99.90;;;;;;5036719;28;20045;-47
2022/06/13 11:38:22;;;;;;;10.40;1.88;;;19.70;99.10;;;;;;5024223;28;20053;-46
2022/06/13 11:41:13;;;;;;;9.80;2.15;;;19.80;99.30;;;;;;5034196;28;20110;-45
2022/06/13 11:43:59;;;;;;;9.20;2.25;;;20.10;99.90;;;;;;5023186;28;20057;-45
2022/06/13 11:46:28;;;;;;;6.70;2.33;;;20.10;99.90;;;;;;5041483;28;20083;-45
2022/06/13 11:49:02;;;;;;;8.50;2.05;;;20.30;99.90;;;;;;5041696;28;20551;-47
2022/06/13 11:51:40;;;;;;;5.43;2.20;;;20.50;99.30;;;;;;5042850;28;20051;-46
2022/06/13 11:54:15;;;;;;;6.65;2.35;;;20.40;98.20;;;;;;5042363;28;20151;-46
2022/06/13 11:56:41;;;;;;;10.55;2.50;;;20.30;98.80;;;;;;5022105;28;20171;-45
2022/06/13 11:59:06;;;;;;;7.00;2.17;;;20.60;99.60;;;;;;5021021;28;20054;-46
2022/06/13 12:01:37;;;;;;;10.40;2.28;;;20.70;99.00;;;;;;5023039;28;20068;-45
2022/06/13 12:04:19;;;;;;;6.07;1.88;;;20.80;98.70;;;;;;5040546;28;20048;-46
2022/06/13 12:06:57;;;;;;;11.23;2.20;;;20.90;98.30;;;;;;5041347;28;20055;-47
2022/06/13 12:09:32;;;;;;;6.20;2.00;;;20.90;98.40;;;;;;5040928;28;20386;-46
2022/06/13 12:12:08;;;;;;;4.82;1.98;;;20.70;97.60;;;;;;5022492;28;20052;-45
2022/06/13 12:14:42;;;;;;;8.63;2.60;;;20.40;97.20;;;;;;5040871;28;20044;-46
2022/06/13 12:17:10;;;;;;;6.43;1.80;;;20.00;98.30;;;;;;5019837;28;20505;-45
2022/06/13 12:19:52;;;;;;;7.82;2.00;;;20.00;99.00;;;;;;5038738;28;20063;-45
2022/06/13 12:22:30;;;;;;;9.23;1.83;;;19.60;98.00;;;;;;5020165;28;20520;-46
2022/06/13 12:25:17;;;;;;;7.75;2.20;;;19.40;99.10;;;;;;5022969;28;20057;-48
2022/06/13 12:27:47;;;;;;;4.75;1.77;;;19.30;99.80;;;;;;5041307;28;20053;-46
2022/06/13 12:30:37;;;;;;;10.18;2.25;;;19.10;99.10;;;;;;5039884;28;20049;-45
2022/06/13 12:33:09;;;;;;;11.25;2.47;;;19.20;99.90;;;;;;5041365;28;20558;-45
2022/06/13 12:35:35;;;;;;;11.70;2.63;;;19.40;99.80;;;;;;5021536;28;20437;-48
2022/06/13 12:38:20;;;;;;;9.20;2.83;;;19.20;99.50;;;;;;5040757;28;20132;-45
2022/06/13 12:41:16;;;;;;;9.15;2.50;;;19.20;99.90;;;;;;5012671;28;20325;-47
2022/06/13 12:44:23;;;;;;;6.82;2.03;;;19.10;99.90;;;;;;5023157;28;20079;-47
2022/06/13 12:47:23;;;;;;;9.73;2.28;;;19.10;99.90;;;;;;5034412;28;20061;-45
2022/06/13 12:50:22;;;;;;;9.95;2.70;;;19.10;99.90;;;;;;5041311;28;20056;-46
2022/06/13 12:53:08;;;;;;;9.20;2.08;;;19.10;99.90;;;;;;5043259;28;20044;-45
2022/06/13 12:55:53;;;;;;;9.23;1.70;;;19.30;99.90;;;;;;4961299;28;20058;-45
2022/06/13 12:59:05;;;;;;;7.65;2.30;;;19.20;99.80;;;;;;4959316;28;20797;-54
2022/06/13 13:02:00;;;;;;;6.63;1.90;;;19.50;99.90;;;;;;4959118;28;20601;-45
2022/06/13 13:04:45;;;;;;;7.20;2.08;;;19.70;99.50;;;;;;4958968;28;20709;-45
2022/06/13 13:07:29;;;;;;;8.43;2.20;;;19.80;98.60;;;;;;4943505;28;20436;-47
2022/06/13 13:10:13;;;;;;;5.40;1.80;;;20.00;99.20;;;;;;4958531;28;20116;-45
2022/06/13 13:12:57;;;;;;;10.20;2.50;;;20.00;99.40;;;;;;4959078;28;20062;-45
2022/06/13 13:15:26;;;;;;;8.38;2.20;;;19.90;99.80;;;;;;4942478;28;20062;-46
2022/06/13 13:18:13;;;;;;;6.13;1.95;;;19.80;99.60;;;;;;4958526;28;20061;-45
2022/06/13 13:20:58;;;;;;;7.78;1.90;;;20.00;98.90;;;;;;4958827;28;20062;-46
2022/06/13 13:23:48;;;;;;;8.75;2.40;;;20.30;98.50;;;;;;4943167;28;20105;-46
2022/06/13 13:26:22;;;;;;;8.88;2.20;;;20.40;98.50;;;;;;4958350;28;20127;-44
2022/06/13 13:28:47;;;;;;;9.75;2.47;;;20.10;99.20;;;;;;4958388;28;20584;-45
2022/06/13 13:31:31;;;;;;;7.43;2.15;;;20.30;99.90;;;;;;4958518;28;20055;-45
2022/06/13 13:34:12;;;;;;;7.50;2.08;;;20.50;98.40;;;;;;5033241;28;20067;-45
2022/06/13 13:36:48;;;;;;;9.00;2.42;;;20.70;98.40;;;;;;5015892;28;20061;-46
2022/06/13 13:39:19;;;;;;;6.10;2.63;;;20.30;98.40;;;;;;5037513;28;20067;-43
2022/06/13 13:42:13;;;;;;;5.53;1.83;;;20.10;98.10;;;;;;5040106;28;20102;-46
2022/06/13 13:45:24;;;;;;;9.25;1.95;;;20.00;98.60;;;;;;5039537;28;20587;-44
2022/06/13 13:47:56;;;;;;;5.55;1.77;;;19.60;99.90;;;;;;4957072;28;20066;-44
2022/06/13 13:50:27;;;;;;;6.80;2.20;;;19.10;99.90;;;;;;4958703;28;20589;-44